createdAt,value
2019-05-29T00:01:21.896Z,70.33
2019-05-29T00:03:49.953Z,70.07
2019-05-29T00:06:18.610Z,73.40
2019-05-29T00:08:46.630Z,69.07
2019-05-29T00:11:14.632Z,69.80
2019-05-29T00:13:42.680Z,72.63
2019-05-29T00:16:10.615Z,70.53
2019-05-29T00:18:38.513Z,72.77
2019-05-29T00:21:06.464Z,70.57
2019-05-29T00:23:34.449Z,71.90
2019-05-29T00:26:02.403Z,70.70
2019-05-29T00:28:30.373Z,70.40
2019-05-29T00:30:58.372Z,69.93
2019-05-29T00:33:26.405Z,70.20
2019-05-29T00:35:54.280Z,69.50
2019-05-29T00:38:22.259Z,70.00
2019-05-29T00:40:50.268Z,72.70
2019-05-29T00:43:18.177Z,73.63
2019-05-29T00:45:46.167Z,71.07
2019-05-29T00:48:14.144Z,70.20
2019-05-29T00:50:42.068Z,69.33
2019-05-29T00:53:10.178Z,70.70
2019-05-29T00:55:38.250Z,70.90
2019-05-29T00:58:06.396Z,71.97
2019-05-29T01:00:34.288Z,71.60
2019-05-29T01:03:02.275Z,72.37
2019-05-29T01:05:30.225Z,71.50
2019-05-29T01:07:58.297Z,70.90
2019-05-29T01:10:26.249Z,72.80
2019-05-29T01:12:54.675Z,70.10
2019-05-29T01:15:22.820Z,71.53
2019-05-29T01:17:50.820Z,71.37
2019-05-29T01:20:19.907Z,72.10
2019-05-29T01:22:47.936Z,69.90
2019-05-29T01:25:16.519Z,70.47
2019-05-29T01:27:44.494Z,70.67
2019-05-29T01:30:13.129Z,70.23
2019-05-29T01:32:41.145Z,72.20
2019-05-29T01:35:09.620Z,72.67
2019-05-29T01:37:37.600Z,71.70
2019-05-29T01:40:19.236Z,74.00
2019-05-29T01:42:35.499Z,72.33
2019-05-29T01:45:07.538Z,72.80
2019-05-29T01:47:33.165Z,72.40
2019-05-29T01:50:01.160Z,71.77
2019-05-29T01:52:29.132Z,71.40
2019-05-29T01:54:57.100Z,69.40
2019-05-29T01:57:25.023Z,74.60
2019-05-29T01:59:52.923Z,70.37
2019-05-29T02:02:21.858Z,70.80
2019-05-29T02:04:49.974Z,73.00
2019-05-29T02:07:18.022Z,71.03
2019-05-29T02:09:46.014Z,73.50
2019-05-29T02:12:13.978Z,69.77
2019-05-29T02:14:41.989Z,73.97
2019-05-29T02:17:09.865Z,69.57
2019-05-29T02:19:37.888Z,72.00
2019-05-29T02:22:05.877Z,70.67
2019-05-29T02:24:33.819Z,69.90
2019-05-29T02:27:01.810Z,70.33
2019-05-29T02:29:29.804Z,70.00
2019-05-29T02:31:57.734Z,69.97
2019-05-29T02:34:27.895Z,71.57
2019-05-29T02:36:55.371Z,69.30
2019-05-29T02:39:25.101Z,71.20
2019-05-29T02:41:53.029Z,69.97
2019-05-29T02:44:21.231Z,70.30
2019-05-29T02:46:49.369Z,69.70
2019-05-29T02:49:17.334Z,70.10
2019-05-29T02:51:45.274Z,73.40
2019-05-29T02:54:13.361Z,71.10
2019-05-29T02:56:42.639Z,68.77
2019-05-29T02:59:10.834Z,69.60
2019-05-29T03:01:38.836Z,69.73
2019-05-29T03:04:06.875Z,69.20
2019-05-29T03:06:35.958Z,69.23
2019-05-29T03:09:05.643Z,70.87
2019-05-29T03:11:34.041Z,68.53
2019-05-29T03:14:02.027Z,69.00
2019-05-29T03:16:31.908Z,68.67
2019-05-29T03:18:59.695Z,68.47
2019-05-29T03:21:28.385Z,69.67
2019-05-29T03:23:56.481Z,69.57
2019-05-29T03:26:26.891Z,69.80
2019-05-29T03:28:54.146Z,69.17
2019-05-29T03:31:22.116Z,71.53
2019-05-29T03:33:50.977Z,70.10
2019-05-29T03:36:19.374Z,68.40
2019-05-29T03:38:47.389Z,70.03
2019-05-29T03:41:15.319Z,68.60
2019-05-29T03:43:43.272Z,68.50
2019-05-29T03:46:29.004Z,70.40
2019-05-29T03:48:41.063Z,69.40
2019-05-29T03:51:09.054Z,68.97
2019-05-29T03:53:38.451Z,69.17
2019-05-29T03:56:06.615Z,70.40
2019-05-29T03:58:35.165Z,68.87
2019-05-29T04:01:03.795Z,68.50
2019-05-29T04:03:33.349Z,69.90
2019-05-29T04:06:01.465Z,70.07
2019-05-29T04:08:31.036Z,69.87
2019-05-29T04:10:59.128Z,70.30
2019-05-29T04:13:27.487Z,68.30
2019-05-29T04:15:56.105Z,69.43
2019-05-29T04:18:24.869Z,68.87
2019-05-29T04:20:52.748Z,68.17
2019-05-29T04:23:20.731Z,70.37
2019-05-29T04:25:48.691Z,69.00
2019-05-29T04:28:16.678Z,67.50
2019-05-29T04:30:44.633Z,69.10
2019-05-29T04:33:12.614Z,68.70
2019-05-29T04:35:40.658Z,69.10
2019-05-29T04:38:08.869Z,68.40
2019-05-29T04:40:37.514Z,68.20
2019-05-29T04:43:06.536Z,68.60
2019-05-29T04:45:37.341Z,69.37
2019-05-29T04:48:04.209Z,68.80
2019-05-29T04:50:33.492Z,68.80
2019-05-29T04:53:01.744Z,69.07
2019-05-29T04:55:30.705Z,69.07
2019-05-29T04:57:58.737Z,68.87
2019-05-29T05:00:26.715Z,69.50
2019-05-29T05:02:54.764Z,68.87
2019-05-29T05:05:22.640Z,68.37
2019-05-29T05:07:50.629Z,68.33
2019-05-29T05:10:29.229Z,68.90
2019-05-29T05:12:57.216Z,72.90
2019-05-29T05:15:25.348Z,69.37
2019-05-29T05:17:53.263Z,68.77
2019-05-29T05:20:21.217Z,69.27
2019-05-29T05:22:49.165Z,69.20
2019-05-29T05:25:17.160Z,71.80
2019-05-29T05:27:45.118Z,68.87
2019-05-29T05:30:13.207Z,69.53
2019-05-29T05:32:41.361Z,72.90
2019-05-29T05:35:09.256Z,72.30
2019-05-29T05:37:37.201Z,69.07
2019-05-29T05:40:05.185Z,70.57
2019-05-29T05:42:33.140Z,69.00
2019-05-29T05:45:01.110Z,71.77
2019-05-29T05:47:43.416Z,70.80
2019-05-29T05:49:58.779Z,69.70
2019-05-29T05:52:26.758Z,69.00
2019-05-29T05:54:54.748Z,68.70
2019-05-29T05:57:22.676Z,69.63
2019-05-29T05:59:50.768Z,68.17
2019-05-29T06:02:18.942Z,69.50
2019-05-29T06:04:46.980Z,69.30
2019-05-29T06:07:14.885Z,68.20
2019-05-29T06:09:42.853Z,68.40
2019-05-29T06:12:10.806Z,68.50
2019-05-29T06:14:38.779Z,71.47
2019-05-29T06:17:06.786Z,69.60
2019-05-29T06:19:35.029Z,69.40
2019-05-29T06:22:03.105Z,68.13
2019-05-29T06:24:31.089Z,69.43
2019-05-29T06:26:59.065Z,70.80
2019-05-29T06:29:27.106Z,69.20
2019-05-29T06:31:55.104Z,69.77
2019-05-29T06:34:23.045Z,68.70
2019-05-29T06:36:51.038Z,71.53
2019-05-29T06:39:18.983Z,71.43
2019-05-29T06:41:46.970Z,72.60
2019-05-29T06:44:14.944Z,69.97
2019-05-29T06:46:45.142Z,70.17
2019-05-29T06:49:12.514Z,71.30
2019-05-29T06:51:41.356Z,70.67
2019-05-29T06:54:09.379Z,70.90
2019-05-29T06:56:37.731Z,69.70
2019-05-29T06:59:05.819Z,71.13
2019-05-29T07:01:35.124Z,70.00
2019-05-29T07:04:11.797Z,69.27
2019-05-29T07:06:33.089Z,68.90
2019-05-29T07:09:01.055Z,70.07
2019-05-29T07:11:29.043Z,69.10
2019-05-29T07:13:56.995Z,73.80
2019-05-29T07:16:40.917Z,69.50
2019-05-29T07:19:23.840Z,69.57
2019-05-29T07:21:26.461Z,68.70
2019-05-29T07:23:55.223Z,69.30
2019-05-29T07:26:23.126Z,69.00
2019-05-29T07:29:07.385Z,68.67
2019-05-29T07:31:20.859Z,72.40
2019-05-29T07:33:48.772Z,68.93
2019-05-29T07:36:16.811Z,69.20
2019-05-29T07:38:54.840Z,68.07
2019-05-29T07:41:14.482Z,69.47
2019-05-29T07:43:43.644Z,69.00
2019-05-29T07:46:11.873Z,68.03
2019-05-29T07:48:40.399Z,68.90
2019-05-29T07:51:08.436Z,69.20
2019-05-29T07:53:36.444Z,69.00
2019-05-29T07:56:04.421Z,70.20
2019-05-29T07:58:32.425Z,70.30
2019-05-29T08:01:11.630Z,67.97
2019-05-29T08:03:30.160Z,68.87
2019-05-29T08:05:58.387Z,68.57
2019-05-29T08:08:26.365Z,69.10
2019-05-29T08:10:54.352Z,68.30
2019-05-29T08:13:22.322Z,69.20
2019-05-29T08:16:01.589Z,69.30
2019-05-29T08:18:20.095Z,69.40
2019-05-29T08:20:48.217Z,69.00
2019-05-29T08:23:16.206Z,69.60
2019-05-29T08:25:45.355Z,68.60
2019-05-29T08:28:13.401Z,68.80
2019-05-29T08:30:46.270Z,69.00
2019-05-29T08:33:10.970Z,68.03
2019-05-29T08:35:38.927Z,68.57
2019-05-29T08:38:06.901Z,68.60
2019-05-29T08:40:34.884Z,68.40
2019-05-29T08:43:02.828Z,69.20
2019-05-29T08:45:30.797Z,68.40
2019-05-29T08:47:58.688Z,68.27
2019-05-29T08:50:26.735Z,70.63
2019-05-29T08:52:54.831Z,70.10
2019-05-29T08:55:22.797Z,69.17
2019-05-29T08:57:50.695Z,68.07
2019-05-29T09:00:18.631Z,69.90
2019-05-29T09:02:46.725Z,68.40
2019-05-29T09:05:14.810Z,68.93
2019-05-29T09:07:43.345Z,68.77
2019-05-29T09:10:11.637Z,68.27
2019-05-29T09:12:39.596Z,68.17
2019-05-29T09:15:08.818Z,68.47
2019-05-29T09:17:37.374Z,74.37
2019-05-29T09:20:05.441Z,70.57
2019-05-29T09:22:33.423Z,68.57
2019-05-29T09:25:01.384Z,69.23
2019-05-29T09:27:29.469Z,69.47
2019-05-29T09:29:57.428Z,68.90
2019-05-29T09:32:48.898Z,71.37
2019-05-29T09:34:55.093Z,70.43
2019-05-29T09:37:22.960Z,68.87
2019-05-29T09:39:50.954Z,69.97
2019-05-29T09:42:20.320Z,70.30
2019-05-29T09:44:48.541Z,70.43
2019-05-29T09:47:17.271Z,70.40
2019-05-29T09:49:46.184Z,69.83
2019-05-29T09:52:14.150Z,71.33
2019-05-29T09:54:42.041Z,69.20
2019-05-29T09:57:10.014Z,70.20
2019-05-29T09:59:37.964Z,69.80
2019-05-29T10:02:08.785Z,69.57
2019-05-29T10:04:35.656Z,73.20
2019-05-29T10:07:04.868Z,69.90
2019-05-29T10:09:33.114Z,69.00
2019-05-29T10:12:04.968Z,69.20
2019-05-29T10:14:30.792Z,72.43
2019-05-29T10:17:04.520Z,69.50
2019-05-29T10:19:28.475Z,68.67
2019-05-29T10:21:57.994Z,68.33
2019-05-29T10:24:26.155Z,69.77
2019-05-29T10:26:55.568Z,70.07
2019-05-29T10:29:23.840Z,70.17
2019-05-29T10:31:53.416Z,68.60
2019-05-29T10:34:21.619Z,69.20
2019-05-29T10:36:51.735Z,71.77
2019-05-29T10:39:19.294Z,69.20
2019-05-29T10:41:47.301Z,69.50
2019-05-29T10:44:15.334Z,67.87
2019-05-29T10:46:45.978Z,68.77
2019-05-29T10:49:13.066Z,69.60
2019-05-29T10:51:58.085Z,68.47
2019-05-29T10:54:10.805Z,70.27
2019-05-29T10:56:38.781Z,69.40
2019-05-29T10:59:06.770Z,68.67
2019-05-29T11:01:34.889Z,67.90
2019-05-29T11:04:02.944Z,68.27
2019-05-29T11:06:30.916Z,68.40
2019-05-29T11:08:58.906Z,67.87
2019-05-29T11:11:26.932Z,68.37
2019-05-29T11:13:55.209Z,67.67
2019-05-29T11:16:23.255Z,69.80
2019-05-29T11:18:51.307Z,68.60
2019-05-29T11:21:19.290Z,68.90
2019-05-29T11:23:47.703Z,67.80
2019-05-29T11:26:15.741Z,68.80
2019-05-29T11:28:43.915Z,70.87
2019-05-29T11:31:11.891Z,68.00
2019-05-29T11:33:39.862Z,67.77
2019-05-29T11:36:12.987Z,68.07
2019-05-29T11:38:37.610Z,68.10
2019-05-29T11:41:25.192Z,76.00
2019-05-29T11:43:35.296Z,68.93
2019-05-29T11:46:03.262Z,69.10
2019-05-29T11:48:31.251Z,69.77
2019-05-29T11:50:59.215Z,69.17
2019-05-29T11:53:27.239Z,68.60
2019-05-29T11:55:55.892Z,68.60
2019-05-29T11:58:31.006Z,70.20
2019-05-29T12:00:55.078Z,68.70
2019-05-29T12:03:23.170Z,69.40
2019-05-29T12:05:51.281Z,67.47
2019-05-29T12:08:19.488Z,69.13
2019-05-29T12:10:47.481Z,69.27
2019-05-29T12:13:15.787Z,68.10
2019-05-29T12:15:43.822Z,68.23
2019-05-29T12:18:23.518Z,68.40
2019-05-29T12:20:41.774Z,68.77
2019-05-29T12:23:25.155Z,67.77
2019-05-29T12:25:39.393Z,70.30
2019-05-29T12:28:07.472Z,70.40
2019-05-29T12:30:35.425Z,67.97
2019-05-29T12:33:03.384Z,69.30
2019-05-29T12:35:31.375Z,68.00
2019-05-29T12:37:59.493Z,69.10
2019-05-29T12:40:27.385Z,69.07
2019-05-29T12:42:55.757Z,67.83
2019-05-29T12:45:23.940Z,68.70
2019-05-29T12:47:53.827Z,67.90
2019-05-29T12:50:21.549Z,67.50
2019-05-29T12:52:49.592Z,68.37
2019-05-29T12:55:17.672Z,68.37
2019-05-29T12:57:45.942Z,67.70
2019-05-29T13:00:14.254Z,68.37
2019-05-29T13:02:42.309Z,69.57
2019-05-29T13:05:19.327Z,68.10
2019-05-29T13:07:41.434Z,68.07
2019-05-29T13:10:09.770Z,68.20
2019-05-29T13:12:37.669Z,69.20
2019-05-29T13:15:06.107Z,68.33
2019-05-29T13:17:34.091Z,69.00
2019-05-29T13:20:18.375Z,69.47
2019-05-29T13:22:31.680Z,68.57
2019-05-29T13:24:59.658Z,67.97
2019-05-29T13:27:27.699Z,69.70
2019-05-29T13:29:58.109Z,68.47
2019-05-29T13:32:25.320Z,69.00
2019-05-29T13:34:53.291Z,67.30
2019-05-29T13:37:21.352Z,69.90
2019-05-29T13:39:49.361Z,68.93
2019-05-29T13:42:17.288Z,68.83
2019-05-29T13:44:45.274Z,69.60
2019-05-29T13:47:14.035Z,69.40
2019-05-29T13:49:42.008Z,68.40
2019-05-29T13:52:12.532Z,68.23
2019-05-29T13:54:39.702Z,68.50
2019-05-29T13:57:08.759Z,68.37
2019-05-29T13:59:36.962Z,68.90
2019-05-29T14:02:06.707Z,70.70
2019-05-29T14:04:34.553Z,68.87
2019-05-29T14:07:03.410Z,71.53
2019-05-29T14:09:32.568Z,68.57
2019-05-29T14:12:00.965Z,68.87
2019-05-29T14:14:29.090Z,68.80
2019-05-29T14:16:57.022Z,69.53
2019-05-29T14:19:24.989Z,69.30
2019-05-29T14:21:52.972Z,69.70
2019-05-29T14:24:29.148Z,68.77
2019-05-29T14:26:50.611Z,68.97
2019-05-29T14:29:18.769Z,68.20
2019-05-29T14:31:46.780Z,69.20
2019-05-29T14:34:14.765Z,69.03
2019-05-29T14:36:42.866Z,69.27
2019-05-29T14:39:12.015Z,69.47
2019-05-29T14:41:40.196Z,68.40
2019-05-29T14:44:08.243Z,69.10
2019-05-29T14:46:36.253Z,70.37
2019-05-29T14:49:04.374Z,69.30
2019-05-29T14:51:32.501Z,68.33
2019-05-29T14:54:00.492Z,69.23
2019-05-29T14:56:28.562Z,69.00
2019-05-29T14:58:56.636Z,69.77
2019-05-29T15:01:24.674Z,69.27
2019-05-29T15:03:52.681Z,70.13
2019-05-29T15:06:20.721Z,69.07
2019-05-29T15:08:48.758Z,70.70
2019-05-29T15:11:16.670Z,69.97
2019-05-29T15:13:44.629Z,72.87
2019-05-29T15:16:12.915Z,70.47
2019-05-29T15:18:40.985Z,70.40
2019-05-29T15:21:09.132Z,72.30
2019-05-29T15:23:37.128Z,71.93
2019-05-29T15:26:05.454Z,69.53
2019-05-29T15:28:33.681Z,70.07
2019-05-29T15:31:01.759Z,69.37
2019-05-29T15:33:29.824Z,70.33
2019-05-29T15:35:57.865Z,71.27
2019-05-29T15:38:25.763Z,70.47
2019-05-29T15:40:53.729Z,71.57
2019-05-29T15:43:21.686Z,70.00
2019-05-29T15:45:49.706Z,70.37
2019-05-29T15:48:17.623Z,69.07
2019-05-29T15:50:45.606Z,70.77
2019-05-29T15:53:13.571Z,70.37
2019-05-29T15:55:41.545Z,70.87
2019-05-29T15:58:09.531Z,71.87
2019-05-29T16:00:37.634Z,70.40
2019-05-29T16:03:05.821Z,72.50
2019-05-29T16:05:33.830Z,72.50
2019-05-29T16:08:01.960Z,70.10
2019-05-29T16:10:29.994Z,71.87
2019-05-29T16:12:58.038Z,69.97
2019-05-29T16:15:25.999Z,72.20
2019-05-29T16:17:53.990Z,73.00
2019-05-29T16:20:22.841Z,71.70
2019-05-29T16:22:51.068Z,71.00
2019-05-29T16:25:19.250Z,71.47
2019-05-29T16:27:47.187Z,70.83
2019-05-29T16:30:15.905Z,71.30
2019-05-29T16:32:43.959Z,71.20
2019-05-29T16:35:13.038Z,70.80
2019-05-29T16:37:41.097Z,70.93
2019-05-29T16:40:09.228Z,71.67
2019-05-29T16:42:37.246Z,70.03
2019-05-29T16:45:06.273Z,70.03
2019-05-29T16:47:34.193Z,72.77
2019-05-29T16:50:02.137Z,70.13
2019-05-29T16:52:30.134Z,71.30
2019-05-29T16:54:58.111Z,71.60
2019-05-29T16:57:26.089Z,76.97
2019-05-29T16:59:54.065Z,72.00
2019-05-29T17:02:22.078Z,76.13
2019-05-29T17:04:50.079Z,72.97
2019-05-29T17:07:18.122Z,73.70
2019-05-29T17:09:46.087Z,72.90
2019-05-29T17:12:14.351Z,70.37
2019-05-29T17:14:42.384Z,71.63
2019-05-29T17:17:10.346Z,70.27
2019-05-29T17:19:38.313Z,71.80
2019-05-29T17:22:06.291Z,71.10
2019-05-29T17:24:34.310Z,71.10
2019-05-29T17:27:02.328Z,70.50
2019-05-29T17:29:30.406Z,71.57
2019-05-29T17:31:58.381Z,71.20
2019-05-29T17:34:26.340Z,70.67
2019-05-29T17:36:54.351Z,71.13
2019-05-29T17:39:23.062Z,72.00
2019-05-29T17:41:51.081Z,72.70
2019-05-29T17:44:19.386Z,70.90
2019-05-29T17:46:47.432Z,71.17
2019-05-29T17:49:15.712Z,71.30
2019-05-29T17:51:43.766Z,71.30
2019-05-29T17:54:11.741Z,71.60
2019-05-29T17:56:39.708Z,71.47
2019-05-29T17:59:07.602Z,75.07
2019-05-29T18:01:35.628Z,72.00
2019-05-29T18:04:03.725Z,70.77
2019-05-29T18:06:31.793Z,71.80
2019-05-29T18:08:59.778Z,71.20
2019-05-29T18:11:27.802Z,73.87
2019-05-29T18:13:55.799Z,71.17
2019-05-29T18:16:23.798Z,70.80
2019-05-29T18:18:51.820Z,71.27
2019-05-29T18:21:19.837Z,71.60
2019-05-29T18:23:47.759Z,72.83
2019-05-29T18:26:15.720Z,72.77
2019-05-29T18:28:44.694Z,72.90
2019-05-29T18:31:12.690Z,72.20
2019-05-29T18:33:40.650Z,71.87
2019-05-29T18:36:08.535Z,71.97
2019-05-29T18:38:36.498Z,71.60
2019-05-29T18:41:04.555Z,72.00
2019-05-29T18:43:32.852Z,73.67
2019-05-29T18:46:00.925Z,72.40
2019-05-29T18:48:29.497Z,71.17
2019-05-29T18:50:57.806Z,71.80
2019-05-29T18:53:26.993Z,71.37
2019-05-29T18:55:55.051Z,73.43
2019-05-29T18:58:24.115Z,72.90
2019-05-29T19:00:52.328Z,73.67
2019-05-29T19:03:21.368Z,71.80
2019-05-29T19:05:49.372Z,71.57
2019-05-29T19:08:18.845Z,70.07
2019-05-29T19:10:46.870Z,72.17
2019-05-29T19:13:14.828Z,71.57
2019-05-29T19:15:42.834Z,70.83
2019-05-29T19:18:10.888Z,71.17
2019-05-29T19:20:38.952Z,71.30
2019-05-29T19:23:06.929Z,77.20
2019-05-29T19:25:34.863Z,70.53
2019-05-29T19:28:02.782Z,76.40
2019-05-29T19:30:30.937Z,70.73
2019-05-29T19:32:59.215Z,70.70
2019-05-29T19:35:27.537Z,71.97
2019-05-29T19:37:55.641Z,70.47
2019-05-29T19:40:24.027Z,72.77
2019-05-29T19:42:54.588Z,71.83
2019-05-29T19:45:22.053Z,71.50
2019-05-29T19:47:49.973Z,71.20
2019-05-29T19:50:17.954Z,73.70
2019-05-29T19:52:45.929Z,71.90
2019-05-29T19:55:14.029Z,71.37
2019-05-29T19:57:54.583Z,72.03
2019-05-29T20:00:13.186Z,72.40
2019-05-29T20:02:41.130Z,72.53
2019-05-29T20:05:09.135Z,72.70
2019-05-29T20:07:37.540Z,71.50
2019-05-29T20:10:05.951Z,72.57
2019-05-29T20:12:33.880Z,72.63
2019-05-29T20:15:01.890Z,72.00
2019-05-29T20:17:29.898Z,73.43
2019-05-29T20:19:57.873Z,72.57
2019-05-29T20:22:25.861Z,74.23
2019-05-29T20:24:53.830Z,75.23
2019-05-29T20:27:21.793Z,76.77
2019-05-29T20:29:49.765Z,72.97
2019-05-29T20:32:17.765Z,77.33
2019-05-29T20:34:45.686Z,74.23
2019-05-29T20:37:14.563Z,76.53
2019-05-29T20:39:42.699Z,73.80
2019-05-29T20:42:10.741Z,74.40
2019-05-29T20:44:38.840Z,77.63
2019-05-29T20:47:06.775Z,72.63
2019-05-29T20:49:35.960Z,78.20
2019-05-29T20:52:04.155Z,75.60
2019-05-29T20:54:33.313Z,74.87
2019-05-29T20:57:10.677Z,72.97
2019-05-29T20:59:39.966Z,75.93
2019-05-29T21:02:08.003Z,73.50
2019-05-29T21:04:36.338Z,74.50
2019-05-29T21:07:04.453Z,76.37
2019-05-29T21:09:32.923Z,74.50
2019-05-29T21:12:00.986Z,73.77
2019-05-29T21:14:28.968Z,73.80
2019-05-29T21:16:57.092Z,72.40
2019-05-29T21:19:25.133Z,73.50
2019-05-29T21:21:53.176Z,71.77
2019-05-29T21:24:21.178Z,75.27
2019-05-29T21:26:49.227Z,72.77
2019-05-29T21:29:17.179Z,72.17
2019-05-29T21:31:45.815Z,72.77
2019-05-29T21:34:13.864Z,72.30
2019-05-29T21:36:42.471Z,72.87
2019-05-29T21:39:10.849Z,73.00
2019-05-29T21:41:38.783Z,74.30
2019-05-29T21:44:06.766Z,72.37
2019-05-29T21:46:34.812Z,74.00
2019-05-29T21:49:02.881Z,73.10
2019-05-29T21:51:30.906Z,72.97
2019-05-29T21:53:58.936Z,72.50
2019-05-29T21:56:26.925Z,74.77
2019-05-29T21:59:03.437Z,71.87
2019-05-29T22:01:24.636Z,72.80
2019-05-29T22:03:52.732Z,71.30
2019-05-29T22:06:20.619Z,78.80
2019-05-29T22:08:48.606Z,73.07
2019-05-29T22:11:16.688Z,73.00
2019-05-29T22:13:44.651Z,72.97
2019-05-29T22:16:12.688Z,75.53
2019-05-29T22:18:40.651Z,74.47
2019-05-29T22:21:08.577Z,72.70
2019-05-29T22:23:36.494Z,72.00
2019-05-29T22:26:04.580Z,74.00
2019-05-29T22:28:32.529Z,72.27
2019-05-29T22:31:01.593Z,71.40
2019-05-29T22:33:29.603Z,72.20
2019-05-29T22:35:57.581Z,73.90
2019-05-29T22:38:25.557Z,70.80
2019-05-29T22:40:53.824Z,71.00
2019-05-29T22:43:21.890Z,71.70
2019-05-29T22:45:50.092Z,72.30
2019-05-29T22:48:18.025Z,73.10
2019-05-29T22:50:45.921Z,70.40
2019-05-29T22:53:13.880Z,71.50
2019-05-29T22:55:41.837Z,72.93
2019-05-29T22:58:09.812Z,71.20
2019-05-29T23:00:37.793Z,71.20
2019-05-29T23:03:05.762Z,71.50
2019-05-29T23:05:33.753Z,73.40
2019-05-29T23:08:02.548Z,71.00
2019-05-29T23:10:30.640Z,72.70
2019-05-29T23:13:01.117Z,73.57
2019-05-29T23:15:28.146Z,71.10
2019-05-29T23:17:56.467Z,70.40
2019-05-29T23:20:25.423Z,74.20
2019-05-29T23:22:54.400Z,70.60
2019-05-29T23:25:22.395Z,71.37
2019-05-29T23:27:50.343Z,71.23
2019-05-29T23:30:18.330Z,70.30
2019-05-29T23:32:46.313Z,72.03
2019-05-29T23:35:14.397Z,72.43
2019-05-29T23:37:42.329Z,70.57
2019-05-29T23:40:10.290Z,72.37
2019-05-29T23:42:38.290Z,71.27
2019-05-29T23:45:06.279Z,71.07
2019-05-29T23:47:34.364Z,71.80
2019-05-29T23:50:03.212Z,75.50
2019-05-29T23:52:31.899Z,71.37
2019-05-29T23:54:59.919Z,70.60
2019-05-29T23:57:27.825Z,69.93
